Time;durP1;ratioP1;P1;durP2;ratioP2;P2;SDS_P1;SDS_P2;PMS_P1;PMS_P2;Temp;Humidity;BMP_temperature;BMP_pressure;BME280_temperature;BME280_humidity;BME280_pressure;Samples;Min_cycle;Max_cycle;Signal;HPM_P1;HPM_P2
2023/03/23 00:02:28;;;;;;;3.20;1.13;;;18.70;91.90;;;;;;5042202;28;20052;-65
2023/03/23 00:04:54;;;;;;;1.80;1.20;;;18.60;91.90;;;;;;5042047;28;20082;-64
2023/03/23 00:07:21;;;;;;;4.40;1.20;;;18.70;91.90;;;;;;5041799;28;20484;-65
2023/03/23 00:09:53;;;;;;;3.00;1.10;;;18.70;91.90;;;;;;5042959;28;20450;-66
2023/03/23 00:12:32;;;;;;;3.70;1.00;;;18.60;91.90;;;;;;5042946;28;20579;-65
2023/03/23 00:15:08;;;;;;;1.40;0.90;;;18.60;92.10;;;;;;5043886;28;20075;-65
2023/03/23 00:17:34;;;;;;;1.67;1.00;;;18.60;91.90;;;;;;5043212;28;20446;-65
2023/03/23 00:20:00;;;;;;;1.80;1.17;;;18.60;91.90;;;;;;5042698;28;20053;-65
2023/03/23 00:22:28;;;;;;;2.15;1.20;;;18.60;91.90;;;;;;5042227;28;20248;-65
2023/03/23 00:24:54;;;;;;;2.10;1.05;;;18.60;91.90;;;;;;5042254;28;20056;-65
2023/03/23 00:27:24;;;;;;;3.95;1.40;;;18.60;91.90;;;;;;5041638;28;20503;-65
2023/03/23 00:29:53;;;;;;;2.72;1.40;;;18.60;91.90;;;;;;5042725;28;20040;-65
2023/03/23 00:32:21;;;;;;;2.08;1.05;;;18.50;91.90;;;;;;5043352;28;20040;-65
2023/03/23 00:34:48;;;;;;;3.28;1.33;;;18.50;91.90;;;;;;5042879;28;20090;-65
2023/03/23 00:37:16;;;;;;;2.47;1.23;;;18.50;91.90;;;;;;5044433;28;20087;-65
2023/03/23 00:39:45;;;;;;;2.92;1.17;;;18.50;91.90;;;;;;5043939;28;20075;-65
2023/03/23 00:42:13;;;;;;;3.60;1.23;;;18.50;91.90;;;;;;5043436;28;20045;-65
2023/03/23 00:44:39;;;;;;;2.20;0.98;;;18.50;91.90;;;;;;5038367;28;20034;-65
2023/03/23 00:47:06;;;;;;;2.17;1.20;;;18.50;92.00;;;;;;5034316;28;20127;-65
2023/03/23 00:49:34;;;;;;;1.88;1.10;;;18.50;92.00;;;;;;5043045;28;20056;-65
2023/03/23 00:52:00;;;;;;;3.10;1.20;;;18.50;92.00;;;;;;5043112;28;20060;-65
2023/03/23 00:54:26;;;;;;;1.63;1.15;;;18.50;92.00;;;;;;5042583;28;20090;-65
2023/03/23 00:56:52;;;;;;;3.25;1.23;;;18.50;92.00;;;;;;5043568;28;20045;-65
2023/03/23 00:59:19;;;;;;;2.15;1.13;;;18.50;92.00;;;;;;5042586;28;20048;-65
2023/03/23 01:01:45;;;;;;;2.83;1.20;;;18.40;92.00;;;;;;5043378;28;20057;-65
2023/03/23 01:04:11;;;;;;;2.10;1.10;;;18.40;92.00;;;;;;5043394;28;20388;-65
2023/03/23 01:06:40;;;;;;;3.03;1.35;;;18.40;92.20;;;;;;5043254;28;20669;-65
2023/03/23 01:09:08;;;;;;;1.90;0.98;;;18.50;92.00;;;;;;5043585;28;20052;-65
2023/03/23 01:11:35;;;;;;;2.20;1.10;;;18.40;91.90;;;;;;5042231;28;20060;-65
2023/03/23 01:14:01;;;;;;;2.20;0.93;;;18.40;92.00;;;;;;5041771;28;20384;-65
2023/03/23 01:16:27;;;;;;;2.33;1.20;;;18.40;92.00;;;;;;5041131;28;20045;-65
2023/03/23 01:18:53;;;;;;;3.08;1.20;;;18.40;92.00;;;;;;5043503;28;20052;-65
2023/03/23 01:21:20;;;;;;;2.00;1.17;;;18.40;92.00;;;;;;5043179;28;20480;-65
2023/03/23 01:23:46;;;;;;;1.73;1.10;;;18.40;92.00;;;;;;5041250;28;20126;-65
2023/03/23 01:26:18;;;;;;;1.67;1.00;;;18.40;92.00;;;;;;5043223;28;20503;-65
2023/03/23 01:28:44;;;;;;;2.05;1.10;;;18.30;92.00;;;;;;5042764;28;20076;-65
2023/03/23 01:31:13;;;;;;;2.05;1.10;;;18.40;92.00;;;;;;5040310;28;20044;-65
2023/03/23 01:33:40;;;;;;;3.53;1.13;;;18.40;92.00;;;;;;5042952;28;20048;-65
2023/03/23 01:36:09;;;;;;;2.63;1.02;;;18.40;91.90;;;;;;5042372;28;20071;-65
2023/03/23 01:38:35;;;;;;;1.40;1.15;;;18.40;92.00;;;;;;5042544;28;20048;-65
2023/03/23 01:41:01;;;;;;;3.50;1.10;;;18.40;91.90;;;;;;5042362;28;20044;-65
2023/03/23 01:43:27;;;;;;;1.73;0.98;;;18.40;92.00;;;;;;5042779;28;20045;-65
2023/03/23 01:45:53;;;;;;;2.17;1.17;;;18.30;92.00;;;;;;5035730;28;20071;-65
2023/03/23 01:48:30;;;;;;;1.92;1.00;;;18.40;92.00;;;;;;5023760;28;20037;-65
2023/03/23 01:51:02;;;;;;;1.92;1.10;;;18.30;91.90;;;;;;5023417;28;20368;-65
2023/03/23 01:53:39;;;;;;;2.10;1.00;;;18.40;92.00;;;;;;5023418;28;20456;-65
2023/03/23 01:56:08;;;;;;;1.55;0.88;;;18.40;92.00;;;;;;5023080;28;20055;-65
2023/03/23 01:58:36;;;;;;;2.00;0.93;;;18.40;92.00;;;;;;5023163;28;20085;-64
2023/03/23 02:01:07;;;;;;;1.63;0.98;;;18.40;91.90;;;;;;5021930;28;20084;-65
2023/03/23 02:03:34;;;;;;;3.03;1.25;;;18.40;91.90;;;;;;5026251;28;20084;-65
2023/03/23 02:06:00;;;;;;;2.25;1.08;;;18.40;91.90;;;;;;5026305;28;20056;-65
2023/03/23 02:08:32;;;;;;;1.88;1.00;;;18.40;91.90;;;;;;5025953;28;20049;-65
2023/03/23 02:10:58;;;;;;;2.55;1.00;;;18.30;91.90;;;;;;5009168;28;20037;-65
2023/03/23 02:13:25;;;;;;;2.17;1.30;;;18.30;91.90;;;;;;5026624;28;20121;-65
2023/03/23 02:16:13;;;;;;;1.80;1.00;;;18.30;91.90;;;;;;5026286;28;20103;-65
2023/03/23 02:18:41;;;;;;;2.50;1.10;;;18.30;91.90;;;;;;5026295;28;20053;-65
2023/03/23 02:21:33;;;;;;;1.70;1.02;;;18.30;92.20;;;;;;5026321;28;20362;-65
2023/03/23 02:24:02;;;;;;;2.15;1.13;;;18.30;91.90;;;;;;4997001;28;20136;-65
2023/03/23 02:26:33;;;;;;;3.15;1.25;;;18.30;91.90;;;;;;5026145;28;20415;-65
2023/03/23 02:29:22;;;;;;;2.10;1.15;;;18.30;91.90;;;;;;5026630;28;20067;-65
2023/03/23 02:31:48;;;;;;;1.70;1.05;;;18.30;91.90;;;;;;5026270;28;20045;-65
2023/03/23 02:34:29;;;;;;;2.47;1.30;;;18.30;91.90;;;;;;5025673;28;20464;-65
2023/03/23 02:37:18;;;;;;;3.05;1.50;;;18.30;91.90;;;;;;5026657;28;20142;-65
2023/03/23 02:39:51;;;;;;;1.67;1.00;;;18.30;92.10;;;;;;5026320;28;20064;-65
2023/03/23 02:42:31;;;;;;;2.20;0.90;;;18.30;91.80;;;;;;5026588;28;20243;-65
2023/03/23 02:45:03;;;;;;;3.33;1.58;;;18.30;91.80;;;;;;5028719;28;20077;-65
2023/03/23 02:47:30;;;;;;;2.95;1.15;;;18.30;91.80;;;;;;5032305;28;20057;-65
2023/03/23 02:49:58;;;;;;;2.70;1.20;;;18.20;91.80;;;;;;5025533;28;20124;-65
2023/03/23 02:52:31;;;;;;;1.75;1.00;;;18.20;91.80;;;;;;5024757;28;20045;-65
2023/03/23 02:55:01;;;;;;;1.60;1.00;;;18.20;91.80;;;;;;5025392;28;20037;-65
2023/03/23 02:57:28;;;;;;;2.13;1.02;;;18.20;91.80;;;;;;5024789;28;20041;-65
2023/03/23 02:59:54;;;;;;;2.45;0.98;;;18.20;91.80;;;;;;5024108;28;20099;-65
2023/03/23 03:02:36;;;;;;;2.15;1.25;;;18.20;91.70;;;;;;5026773;28;20091;-65
2023/03/23 03:05:09;;;;;;;2.20;1.10;;;18.20;91.70;;;;;;5043073;28;20542;-65
2023/03/23 03:08:19;;;;;;;2.33;1.20;;;18.20;91.70;;;;;;5043707;28;20045;-65
2023/03/23 03:11:08;;;;;;;2.05;1.05;;;18.20;91.70;;;;;;4999888;28;20160;-65
2023/03/23 03:13:33;;;;;;;2.42;1.10;;;18.20;91.80;;;;;;5044155;28;20555;-65
2023/03/23 03:16:23;;;;;;;2.55;0.95;;;18.20;91.70;;;;;;5044110;28;20136;-65
2023/03/23 03:19:16;;;;;;;2.28;1.10;;;18.20;91.70;;;;;;5042920;28;20057;-65
2023/03/23 03:21:45;;;;;;;2.58;1.20;;;18.20;91.70;;;;;;5045192;28;20598;-65
2023/03/23 03:24:14;;;;;;;1.63;1.08;;;18.20;91.70;;;;;;5108878;22;20035;-64
2023/03/23 03:26:47;;;;;;;2.72;1.30;;;18.20;91.70;;;;;;5066597;28;20040;-65
2023/03/23 03:29:17;;;;;;;1.73;1.20;;;18.20;91.70;;;;;;5064202;28;20045;-65
2023/03/23 03:31:47;;;;;;;2.67;1.35;;;18.10;91.70;;;;;;5062654;28;20101;-65
2023/03/23 03:34:17;;;;;;;1.85;1.10;;;18.10;91.70;;;;;;5064537;28;20044;-65
2023/03/23 03:36:50;;;;;;;2.13;1.20;;;18.10;91.70;;;;;;5063839;28;20076;-65
2023/03/23 03:39:17;;;;;;;2.00;1.30;;;18.10;91.70;;;;;;5064853;28;20465;-65
2023/03/23 03:41:44;;;;;;;2.03;1.10;;;18.10;91.70;;;;;;5064512;28;20044;-65
2023/03/23 03:44:10;;;;;;;3.15;1.00;;;18.10;91.70;;;;;;5078611;28;20598;-65
2023/03/23 03:46:36;;;;;;;1.77;0.90;;;18.10;91.70;;;;;;5053529;28;20041;-65
2023/03/23 03:49:05;;;;;;;2.55;1.20;;;18.10;91.60;;;;;;5044504;28;20048;-65
2023/03/23 03:51:32;;;;;;;2.20;1.20;;;18.10;91.60;;;;;;5044401;28;20041;-65
2023/03/23 03:53:58;;;;;;;2.58;1.20;;;18.10;91.60;;;;;;5042433;28;20048;-65
2023/03/23 03:56:25;;;;;;;3.40;1.30;;;18.10;91.60;;;;;;5043376;28;20123;-65
2023/03/23 03:58:52;;;;;;;1.90;1.00;;;18.10;91.60;;;;;;5044868;28;20045;-64
2023/03/23 04:01:22;;;;;;;2.75;1.20;;;18.10;91.60;;;;;;5043835;28;20133;-65
2023/03/23 04:03:48;;;;;;;2.58;1.20;;;18.10;91.60;;;;;;5044649;28;20076;-65
2023/03/23 04:06:15;;;;;;;2.05;1.10;;;18.10;91.60;;;;;;5044537;28;20041;-65
2023/03/23 04:08:41;;;;;;;2.45;1.27;;;18.10;91.60;;;;;;5044332;28;20056;-65
2023/03/23 04:11:12;;;;;;;2.08;1.10;;;18.10;91.60;;;;;;5043602;28;20659;-65
2023/03/23 04:13:38;;;;;;;3.20;1.13;;;18.00;91.60;;;;;;5044948;28;20049;-65
2023/03/23 04:16:04;;;;;;;2.03;1.10;;;18.00;91.60;;;;;;5043508;28;20427;-65
2023/03/23 04:18:32;;;;;;;2.38;1.30;;;18.00;91.60;;;;;;5043560;28;20045;-65
2023/03/23 04:20:59;;;;;;;2.38;1.15;;;18.00;91.60;;;;;;5044593;28;20509;-65
2023/03/23 04:23:26;;;;;;;2.10;1.00;;;18.10;91.70;;;;;;5043971;28;20717;-65
2023/03/23 04:25:53;;;;;;;2.15;1.13;;;18.00;91.70;;;;;;5042219;28;20063;-65
2023/03/23 04:28:23;;;;;;;2.03;1.13;;;18.00;91.70;;;;;;5044041;28;20056;-65
2023/03/23 04:30:52;;;;;;;2.53;1.35;;;18.00;91.70;;;;;;5058872;28;20111;-65
2023/03/23 04:33:19;;;;;;;1.65;0.90;;;18.00;91.70;;;;;;5043610;28;20053;-65
2023/03/23 04:35:47;;;;;;;2.63;1.30;;;18.00;91.70;;;;;;5042339;28;20041;-65
2023/03/23 04:38:15;;;;;;;2.08;1.10;;;18.00;91.70;;;;;;5042743;28;20383;-65
2023/03/23 04:40:43;;;;;;;2.28;1.10;;;18.00;91.70;;;;;;5043643;28;20122;-65
2023/03/23 04:43:08;;;;;;;2.00;1.00;;;18.00;91.70;;;;;;5044091;28;20466;-65
2023/03/23 04:45:37;;;;;;;2.63;1.40;;;18.00;91.70;;;;;;5051110;28;20040;-65
2023/03/23 04:48:04;;;;;;;1.92;0.93;;;18.00;91.70;;;;;;5045087;28;20072;-65
2023/03/23 04:50:32;;;;;;;1.65;1.10;;;18.00;91.70;;;;;;5043542;28;20081;-65
2023/03/23 04:53:03;;;;;;;1.55;1.10;;;18.00;91.70;;;;;;5044307;28;20123;-65
2023/03/23 04:55:36;;;;;;;1.88;1.20;;;18.00;91.70;;;;;;5044126;28;20045;-65
2023/03/23 04:58:06;;;;;;;1.75;1.20;;;17.90;91.70;;;;;;5058808;28;20077;-65
2023/03/23 05:00:33;;;;;;;2.72;1.30;;;17.90;91.70;;;;;;5042982;28;20064;-65
2023/03/23 05:03:00;;;;;;;2.25;1.10;;;17.90;91.70;;;;;;5044185;28;20124;-65
2023/03/23 05:05:29;;;;;;;1.92;1.20;;;17.90;91.70;;;;;;5042653;28;20073;-65
2023/03/23 05:07:55;;;;;;;2.72;1.40;;;17.90;91.80;;;;;;5043743;28;20083;-65
2023/03/23 05:10:21;;;;;;;2.42;1.10;;;17.90;91.80;;;;;;5043527;28;20601;-65
2023/03/23 05:12:46;;;;;;;2.25;1.10;;;17.90;91.80;;;;;;5042809;28;20194;-65
2023/03/23 05:15:15;;;;;;;2.28;1.15;;;17.90;91.80;;;;;;5042459;28;20445;-65
2023/03/23 05:17:43;;;;;;;1.60;0.88;;;17.90;91.80;;;;;;5042407;28;20044;-65
2023/03/23 05:20:11;;;;;;;2.45;1.27;;;17.90;91.80;;;;;;5042394;28;20151;-65
2023/03/23 05:22:38;;;;;;;2.20;0.90;;;17.90;91.80;;;;;;5043772;28;20151;-65
2023/03/23 05:25:05;;;;;;;1.90;0.90;;;17.90;91.80;;;;;;5042712;28;20061;-65
2023/03/23 05:27:32;;;;;;;2.03;0.90;;;17.90;91.80;;;;;;5042377;28;20045;-65
2023/03/23 05:29:58;;;;;;;2.20;1.20;;;17.90;91.80;;;;;;5041629;28;20045;-65
2023/03/23 05:32:34;;;;;;;2.35;1.02;;;17.90;91.80;;;;;;5057575;28;20132;-65
2023/03/23 05:35:01;;;;;;;3.20;0.90;;;17.90;91.80;;;;;;5042540;28;20037;-64
2023/03/23 05:37:33;;;;;;;3.10;1.13;;;17.90;91.80;;;;;;5045570;28;20398;-65
2023/03/23 05:40:04;;;;;;;2.40;0.85;;;18.30;91.90;;;;;;5046512;28;20475;-65
2023/03/23 05:42:32;;;;;;;2.40;1.10;;;17.80;91.70;;;;;;5060612;28;20045;-64
2023/03/23 05:44:58;;;;;;;1.80;1.02;;;17.90;91.80;;;;;;5048693;28;20426;-65
2023/03/23 05:47:25;;;;;;;2.20;0.90;;;17.90;91.80;;;;;;5053812;28;20041;-64
2023/03/23 05:49:51;;;;;;;2.30;0.70;;;17.80;91.70;;;;;;5046673;28;20048;-65
2023/03/23 05:52:18;;;;;;;2.70;1.05;;;17.80;91.70;;;;;;5045663;28;20051;-65
2023/03/23 05:54:44;;;;;;;2.42;0.90;;;17.80;91.70;;;;;;5047232;28;20406;-65
2023/03/23 05:57:10;;;;;;;2.55;1.20;;;17.80;91.70;;;;;;5046050;28;20044;-65
2023/03/23 05:59:37;;;;;;;1.80;1.00;;;17.80;91.70;;;;;;5045625;28;20037;-65
2023/03/23 06:02:03;;;;;;;3.22;0.98;;;17.80;91.70;;;;;;5046415;28;20041;-65
2023/03/23 06:04:29;;;;;;;1.77;0.98;;;17.80;91.70;;;;;;5045021;28;20033;-64
2023/03/23 06:06:55;;;;;;;2.33;1.00;;;17.80;91.70;;;;;;5046518;28;20447;-65
2023/03/23 06:09:23;;;;;;;2.47;1.00;;;17.80;91.70;;;;;;5046279;28;20052;-65
2023/03/23 06:11:49;;;;;;;2.75;1.00;;;17.80;91.70;;;;;;5061674;28;20087;-65
2023/03/23 06:14:16;;;;;;;1.80;0.93;;;17.80;91.70;;;;;;5061850;28;20495;-64
2023/03/23 06:16:41;;;;;;;2.88;1.20;;;17.80;91.70;;;;;;5045036;28;20140;-65
2023/03/23 06:19:07;;;;;;;3.45;1.30;;;17.80;91.60;;;;;;5045626;28;20063;-65
2023/03/23 06:21:34;;;;;;;4.30;1.27;;;17.80;91.70;;;;;;5046786;28;20044;-64
2023/03/23 06:24:00;;;;;;;2.22;0.90;;;17.80;91.70;;;;;;5045785;28;20040;-65
2023/03/23 06:26:31;;;;;;;2.15;1.10;;;17.80;91.70;;;;;;5046116;28;20049;-65
2023/03/23 06:28:57;;;;;;;2.30;1.05;;;17.80;91.60;;;;;;5045825;28;20127;-65
2023/03/23 06:31:24;;;;;;;3.20;1.08;;;17.80;91.60;;;;;;5045359;28;20090;-65
2023/03/23 06:33:50;;;;;;;3.00;1.10;;;17.80;91.60;;;;;;5045666;28;20053;-65
2023/03/23 06:36:16;;;;;;;3.15;1.15;;;17.80;91.60;;;;;;5045399;28;20079;-65
2023/03/23 06:38:42;;;;;;;2.35;1.10;;;17.80;91.60;;;;;;5045829;28;20044;-65
2023/03/23 06:41:08;;;;;;;2.78;1.23;;;17.80;91.60;;;;;;5044901;28;20040;-66
2023/03/23 06:43:36;;;;;;;3.28;0.90;;;17.90;91.50;;;;;;5046236;28;20072;-65
2023/03/23 06:46:01;;;;;;;3.95;1.10;;;18.10;91.50;;;;;;5051289;28;20052;-65
2023/03/23 06:48:28;;;;;;;6.68;1.25;;;18.20;91.40;;;;;;5065225;28;20049;-65
2023/03/23 06:50:53;;;;;;;4.18;1.08;;;18.30;91.20;;;;;;5065608;28;20091;-65
2023/03/23 06:53:20;;;;;;;2.85;1.00;;;18.40;91.10;;;;;;5064280;28;20072;-65
2023/03/23 06:55:46;;;;;;;3.67;1.33;;;18.40;91.00;;;;;;5066186;28;20048;-65
2023/03/23 06:58:12;;;;;;;2.97;1.05;;;18.50;91.00;;;;;;5065581;28;20090;-65
2023/03/23 07:00:40;;;;;;;3.97;1.58;;;18.50;90.90;;;;;;5065658;28;20458;-65
2023/03/23 07:03:07;;;;;;;3.17;0.93;;;18.50;90.90;;;;;;5064740;28;20052;-65
2023/03/23 07:05:34;;;;;;;4.75;1.38;;;18.50;90.80;;;;;;5064000;28;20037;-64
2023/03/23 07:08:01;;;;;;;2.80;1.00;;;18.50;90.80;;;;;;5065172;28;20048;-65
2023/03/23 07:10:27;;;;;;;3.92;1.13;;;18.50;90.80;;;;;;5065388;28;20709;-65
2023/03/23 07:12:53;;;;;;;3.47;1.08;;;18.50;90.80;;;;;;5065526;28;20044;-65
2023/03/23 07:15:19;;;;;;;4.57;1.20;;;18.60;90.70;;;;;;5063851;28;20069;-65
2023/03/23 07:17:45;;;;;;;4.43;1.10;;;18.60;90.70;;;;;;5065084;28;20562;-65
2023/03/23 07:20:11;;;;;;;3.42;1.15;;;18.60;90.70;;;;;;5065893;28;20041;-65
2023/03/23 07:22:38;;;;;;;3.53;1.00;;;18.60;90.70;;;;;;5064926;28;20087;-65
2023/03/23 07:25:04;;;;;;;3.28;1.25;;;18.60;90.70;;;;;;5064442;28;20056;-65
2023/03/23 07:27:30;;;;;;;3.70;1.10;;;18.70;90.70;;;;;;5063494;28;20053;-65
2023/03/23 07:29:57;;;;;;;3.78;1.27;;;18.70;90.70;;;;;;5064445;28;20056;-65
2023/03/23 07:32:23;;;;;;;3.15;1.33;;;18.60;90.70;;;;;;5064329;28;20120;-65
2023/03/23 07:34:49;;;;;;;3.67;1.20;;;18.60;90.70;;;;;;5065326;28;20036;-65
2023/03/23 07:37:15;;;;;;;5.05;1.58;;;18.60;90.70;;;;;;5064364;28;20458;-65
2023/03/23 07:39:41;;;;;;;3.65;1.40;;;18.60;90.70;;;;;;5064176;28;20120;-65
2023/03/23 07:42:08;;;;;;;3.83;1.10;;;18.60;90.70;;;;;;5064781;28;20639;-64
2023/03/23 07:44:34;;;;;;;3.65;1.15;;;18.70;90.70;;;;;;5059647;28;20051;-65
2023/03/23 07:46:59;;;;;;;4.05;1.40;;;18.90;90.70;;;;;;5053638;28;20045;-66
2023/03/23 07:49:26;;;;;;;7.82;1.95;;;19.50;90.50;;;;;;5042716;28;20618;-66
2023/03/23 07:51:52;;;;;;;12.05;2.47;;;20.40;88.30;;;;;;5044542;28;20052;-65
2023/03/23 07:54:18;;;;;;;19.70;3.33;;;20.40;86.70;;;;;;5044196;28;20053;-66
2023/03/23 07:56:45;;;;;;;19.48;4.38;;;19.90;87.70;;;;;;5043645;28;20049;-67
2023/03/23 07:59:12;;;;;;;25.20;5.72;;;19.60;88.60;;;;;;5043720;28;20391;-67
2023/03/23 08:01:38;;;;;;;28.65;5.82;;;19.50;89.20;;;;;;5043739;28;20124;-69
2023/03/23 08:04:05;;;;;;;25.70;6.32;;;19.30;89.50;;;;;;5043075;28;20094;-66
2023/03/23 08:06:33;;;;;;;27.77;6.63;;;19.30;89.90;;;;;;5043539;28;20064;-66
2023/03/23 08:08:59;;;;;;;27.50;6.65;;;19.30;90.10;;;;;;5042850;28;20107;-66
2023/03/23 08:11:26;;;;;;;27.10;6.82;;;19.20;90.20;;;;;;5043862;28;20049;-66
2023/03/23 08:13:52;;;;;;;28.48;7.40;;;19.30;90.30;;;;;;5043634;28;20044;-66
2023/03/23 08:16:19;;;;;;;24.45;6.30;;;19.20;90.30;;;;;;5043476;28;20041;-67
2023/03/23 08:18:45;;;;;;;28.80;6.85;;;19.10;90.30;;;;;;5043627;28;20084;-66
2023/03/23 08:21:12;;;;;;;25.58;5.88;;;19.10;90.40;;;;;;5043216;28;20448;-66
2023/03/23 08:23:38;;;;;;;28.17;7.20;;;19.10;90.50;;;;;;5044167;28;20458;-67
2023/03/23 08:26:06;;;;;;;34.30;6.30;;;19.10;90.60;;;;;;5044076;28;20088;-66
2023/03/23 08:28:34;;;;;;;22.27;5.47;;;19.20;90.90;;;;;;5043554;28;20060;-67
2023/03/23 08:31:06;;;;;;;30.50;5.78;;;19.20;90.90;;;;;;5042809;28;20376;-65
2023/03/23 08:33:33;;;;;;;22.05;5.32;;;19.10;90.90;;;;;;5043862;28;20057;-65
2023/03/23 08:36:00;;;;;;;16.15;5.05;;;19.10;90.90;;;;;;5041860;28;20136;-65
2023/03/23 08:38:27;;;;;;;19.80;5.32;;;19.10;90.90;;;;;;5048492;28;20074;-65
2023/03/23 08:41:01;;;;;;;16.10;4.45;;;19.10;90.90;;;;;;5070155;28;20050;-65
2023/03/23 08:43:27;;;;;;;15.97;4.63;;;19.10;90.90;;;;;;5072899;28;20344;-66
2023/03/23 08:45:53;;;;;;;21.02;5.35;;;19.10;90.90;;;;;;5055554;28;20075;-65
2023/03/23 08:48:20;;;;;;;14.63;4.32;;;19.10;90.80;;;;;;5043964;28;20126;-65
2023/03/23 08:50:46;;;;;;;12.88;3.80;;;19.10;90.80;;;;;;5043627;28;20258;-64
2023/03/23 08:53:12;;;;;;;15.95;4.15;;;19.10;90.80;;;;;;5043762;28;20045;-63
2023/03/23 08:55:39;;;;;;;13.02;3.80;;;19.10;90.80;;;;;;5043343;28;20488;-64
2023/03/23 08:58:05;;;;;;;21.77;3.72;;;19.10;90.80;;;;;;5043308;28;20048;-63
2023/03/23 09:00:32;;;;;;;18.90;4.20;;;19.10;90.80;;;;;;5042591;28;20046;-63
2023/03/23 09:02:58;;;;;;;9.52;3.42;;;19.10;90.90;;;;;;5043058;28;20041;-63
2023/03/23 09:05:27;;;;;;;12.30;4.15;;;19.20;90.80;;;;;;5043499;28;20116;-65
2023/03/23 09:07:58;;;;;;;13.18;3.53;;;19.30;90.80;;;;;;5043672;28;20426;-65
2023/03/23 09:10:26;;;;;;;12.43;3.33;;;19.50;90.70;;;;;;5043106;28;20068;-65
2023/03/23 09:12:53;;;;;;;12.88;3.55;;;19.50;90.70;;;;;;5052595;28;20036;-67
2023/03/23 09:15:19;;;;;;;15.63;3.20;;;19.50;90.70;;;;;;5054652;28;20044;-65
2023/03/23 09:17:48;;;;;;;13.30;3.80;;;19.50;90.70;;;;;;5057511;28;20119;-64
2023/03/23 09:20:16;;;;;;;9.80;2.97;;;19.50;90.80;;;;;;5056398;28;20041;-64
2023/03/23 09:22:46;;;;;;;14.25;3.20;;;19.50;90.80;;;;;;5056551;28;20458;-65
2023/03/23 09:25:15;;;;;;;11.25;3.13;;;19.50;90.90;;;;;;5055961;28;20055;-65
2023/03/23 09:27:42;;;;;;;11.48;3.00;;;19.50;90.90;;;;;;5054388;28;20154;-65
2023/03/23 09:30:14;;;;;;;9.18;2.83;;;19.60;90.90;;;;;;5053445;28;20519;-65
2023/03/23 09:32:40;;;;;;;13.70;2.80;;;19.50;90.90;;;;;;5056299;28;20036;-65
2023/03/23 09:35:08;;;;;;;12.00;3.05;;;19.50;90.90;;;;;;5061861;28;20052;-65
2023/03/23 09:37:35;;;;;;;12.80;3.58;;;19.50;91.00;;;;;;5066479;28;20052;-65
2023/03/23 09:40:09;;;;;;;9.93;2.60;;;19.60;91.00;;;;;;5065924;28;20041;-66
2023/03/23 09:43:10;;;;;;;7.35;2.20;;;19.60;91.00;;;;;;5066209;28;20407;-66
2023/03/23 09:45:51;;;;;;;7.78;2.50;;;19.70;91.00;;;;;;5055279;28;20450;-65
2023/03/23 09:48:36;;;;;;;9.73;3.00;;;19.80;91.00;;;;;;5065440;28;20040;-66
2023/03/23 09:51:28;;;;;;;;;;;19.80;90.90;;;;;;5066528;28;20055;-65
2023/03/23 09:54:30;;;;;;;7.68;2.30;;;19.70;90.90;;;;;;5063720;28;20638;-65
2023/03/23 09:56:59;;;;;;;9.75;2.58;;;19.70;91.00;;;;;;5065377;28;20443;-65
2023/03/23 09:59:29;;;;;;;8.88;2.88;;;19.70;91.00;;;;;;5064566;28;20045;-66
2023/03/23 10:02:19;;;;;;;8.23;2.20;;;19.70;91.00;;;;;;5065423;28;20115;-65
2023/03/23 10:04:50;;;;;;;8.85;2.80;;;19.70;91.00;;;;;;5065490;28;20033;-65
2023/03/23 10:07:22;;;;;;;9.50;2.40;;;19.70;91.00;;;;;;5065686;28;20056;-65
2023/03/23 10:09:51;;;;;;;9.20;2.65;;;19.70;90.90;;;;;;5066056;28;20032;-66
2023/03/23 10:12:35;;;;;;;6.32;2.20;;;19.70;90.90;;;;;;5065936;28;20060;-65
2023/03/23 10:15:23;;;;;;;12.00;2.15;;;19.70;90.90;;;;;;5063960;28;20138;-66
2023/03/23 10:17:59;;;;;;;6.60;2.30;;;19.60;90.90;;;;;;5064980;28;20449;-65
2023/03/23 10:20:39;;;;;;;7.93;2.28;;;19.60;90.90;;;;;;5057029;28;20048;-66
2023/03/23 10:23:40;;;;;;;7.15;2.10;;;19.70;90.90;;;;;;5053347;28;20494;-66
2023/03/23 10:26:32;;;;;;;8.60;2.40;;;19.70;90.90;;;;;;5056913;28;20086;-66
2023/03/23 10:29:05;;;;;;;6.93;2.00;;;19.70;90.90;;;;;;5056652;28;20809;-65
2023/03/23 10:31:58;;;;;;;6.67;2.00;;;19.70;90.80;;;;;;5054220;28;20387;-65
2023/03/23 10:34:47;;;;;;;7.55;2.20;;;19.70;90.80;;;;;;5052885;28;20053;-65
2023/03/23 10:37:19;;;;;;;7.60;1.90;;;19.70;90.80;;;;;;5046224;28;20063;-65
2023/03/23 10:39:56;;;;;;;6.70;2.08;;;19.80;90.80;;;;;;5044379;28;20052;-65
2023/03/23 10:42:31;;;;;;;7.05;2.38;;;19.80;90.70;;;;;;5045866;28;20216;-65
2023/03/23 10:45:00;;;;;;;9.13;2.33;;;19.80;90.70;;;;;;5048269;28;20037;-65
2023/03/23 10:47:28;;;;;;;6.40;1.75;;;19.80;90.70;;;;;;5053085;28;20078;-65
2023/03/23 10:50:01;;;;;;;7.25;2.03;;;19.90;90.70;;;;;;5046044;28;20037;-65
2023/03/23 10:52:34;;;;;;;5.95;2.10;;;19.90;90.60;;;;;;5045275;28;20049;-64
2023/03/23 10:55:11;;;;;;;7.88;2.15;;;20.00;90.60;;;;;;5045874;28;20084;-65
2023/03/23 10:57:39;;;;;;;7.22;2.20;;;20.00;90.60;;;;;;5044961;28;20127;-64
2023/03/23 11:00:21;;;;;;;5.57;1.80;;;20.00;90.80;;;;;;5043531;28;20041;-65
2023/03/23 11:03:21;;;;;;;6.47;2.00;;;20.00;90.50;;;;;;5045252;28;20040;-65
2023/03/23 11:06:00;;;;;;;7.47;2.08;;;20.10;90.50;;;;;;5056103;28;20051;-65
2023/03/23 11:08:34;;;;;;;5.20;1.58;;;20.20;90.50;;;;;;5052908;28;20048;-65
2023/03/23 11:11:15;;;;;;;5.60;1.77;;;20.20;90.40;;;;;;5065045;28;20098;-64
2023/03/23 11:13:46;;;;;;;7.07;1.75;;;20.30;90.40;;;;;;5064682;28;20417;-65
2023/03/23 11:16:31;;;;;;;4.75;1.60;;;20.30;90.30;;;;;;5064067;28;20052;-65
2023/03/23 11:18:59;;;;;;;5.75;1.60;;;20.40;90.30;;;;;;5064725;28;20044;-64
2023/03/23 11:21:27;;;;;;;8.27;1.83;;;20.40;90.30;;;;;;5063932;28;20033;-64
2023/03/23 11:23:57;;;;;;;9.05;2.03;;;20.40;90.30;;;;;;5064352;28;20108;-65
2023/03/23 11:26:30;;;;;;;6.38;1.90;;;20.40;90.30;;;;;;5064587;28;20110;-64
2023/03/23 11:29:18;;;;;;;5.53;1.65;;;20.50;90.30;;;;;;5063451;28;20044;-65
2023/03/23 11:31:52;;;;;;;5.80;1.70;;;20.40;90.30;;;;;;5064448;28;20037;-64
2023/03/23 11:34:22;;;;;;;5.60;1.92;;;20.40;90.40;;;;;;5063937;28;20549;-64
2023/03/23 11:36:50;;;;;;;7.20;1.88;;;20.50;90.40;;;;;;5063677;28;20057;-64
2023/03/23 11:39:31;;;;;;;5.05;1.67;;;20.50;90.40;;;;;;5062323;28;20049;-64
2023/03/23 11:42:17;;;;;;;5.15;1.75;;;20.60;90.40;;;;;;5064046;28;20135;-64
2023/03/23 11:44:47;;;;;;;5.05;1.58;;;20.60;90.40;;;;;;5057244;28;20071;-65
2023/03/23 11:47:35;;;;;;;6.20;1.90;;;20.60;90.50;;;;;;5052839;28;20187;-65
2023/03/23 11:50:03;;;;;;;5.55;1.80;;;20.60;90.50;;;;;;5042552;28;20045;-64
2023/03/23 11:52:41;;;;;;;15.35;1.95;;;20.50;90.40;;;;;;5043789;28;20146;-65
2023/03/23 11:55:23;;;;;;;7.72;2.05;;;20.40;90.40;;;;;;5052747;28;20041;-65
2023/03/23 11:57:49;;;;;;;8.02;1.77;;;20.20;90.40;;;;;;5062395;28;20068;-64
2023/03/23 12:00:20;;;;;;;6.00;2.15;;;20.20;90.10;;;;;;5062918;28;20376;-64
2023/03/23 12:02:58;;;;;;;7.30;2.15;;;20.20;89.70;;;;;;5063037;28;20483;-64
2023/03/23 12:05:46;;;;;;;7.03;1.70;;;20.10;89.50;;;;;;5063259;28;20041;-64
2023/03/23 12:08:37;;;;;;;7.90;2.00;;;20.10;89.60;;;;;;5062047;28;20048;-63
2023/03/23 12:11:33;;;;;;;5.90;1.92;;;20.10;89.40;;;;;;5062924;28;20048;-64
2023/03/23 12:14:16;;;;;;;7.15;1.85;;;20.10;89.50;;;;;;5061988;28;20124;-64
2023/03/23 12:17:05;;;;;;;5.38;1.50;;;20.10;89.70;;;;;;5060311;28;20045;-64
2023/03/23 12:19:55;;;;;;;5.90;2.08;;;20.10;89.80;;;;;;5063219;28;20491;-64
2023/03/23 12:22:33;;;;;;;7.40;1.85;;;20.10;89.80;;;;;;5064714;28;20427;-64
2023/03/23 12:25:15;;;;;;;5.43;1.52;;;20.10;90.00;;;;;;5062786;28;20131;-64
2023/03/23 12:27:58;;;;;;;6.57;1.90;;;20.00;90.00;;;;;;5062287;28;20063;-64
2023/03/23 12:30:45;;;;;;;6.47;2.15;;;20.00;90.00;;;;;;5062421;28;20067;-64
2023/03/23 12:33:26;;;;;;;3.95;1.73;;;20.00;90.00;;;;;;5062394;28;20123;-64
2023/03/23 12:36:14;;;;;;;5.88;1.70;;;20.00;90.00;;;;;;5062217;28;20047;-64
2023/03/23 12:38:58;;;;;;;7.65;2.03;;;20.00;90.00;;;;;;5063746;28;20407;-64
2023/03/23 12:41:56;;;;;;;5.32;1.38;;;20.10;90.00;;;;;;5064384;28;20040;-64
2023/03/23 12:44:36;;;;;;;4.97;1.60;;;20.10;89.90;;;;;;5036637;28;20498;-64
2023/03/23 12:47:39;;;;;;;5.80;1.73;;;20.20;89.80;;;;;;5051584;28;20122;-64
2023/03/23 12:50:22;;;;;;;4.55;1.60;;;20.10;89.90;;;;;;5052369;28;20388;-64
2023/03/23 12:52:57;;;;;;;4.47;1.63;;;20.10;90.00;;;;;;5043145;28;20057;-64
2023/03/23 12:55:44;;;;;;;6.25;1.50;;;20.10;90.00;;;;;;5059378;28;20041;-64
2023/03/23 12:58:17;;;;;;;5.32;1.63;;;20.10;90.10;;;;;;5042694;28;20151;-64
2023/03/23 13:01:00;;;;;;;5.43;1.60;;;20.10;90.00;;;;;;5042528;28;20417;-64
2023/03/23 13:03:42;;;;;;;5.65;1.40;;;20.20;90.00;;;;;;5042039;28;20048;-65
2023/03/23 13:06:32;;;;;;;4.15;1.70;;;20.20;89.70;;;;;;5043096;28;20182;-64
2023/03/23 13:09:12;;;;;;;4.07;1.38;;;20.10;89.50;;;;;;5043303;28;20045;-64